Time;durP1;ratioP1;P1;durP2;ratioP2;P2;SDS_P1;SDS_P2;PMS_P1;PMS_P2;Temp;Humidity;BMP_temperature;BMP_pressure;BME280_temperature;BME280_humidity;BME280_pressure;Samples;Min_cycle;Max_cycle;Signal;HPM_P1;HPM_P2
2021/06/07 00:02:04;;;;;;;36.10;18.08;;;17.70;99.90;;;;;;5012307;28;20066;-68
2021/06/07 00:04:30;;;;;;;29.80;16.05;;;17.70;99.90;;;;;;5029693;28;20045;-68
2021/06/07 00:06:59;;;;;;;30.35;16.60;;;17.70;99.90;;;;;;5031635;28;20033;-67
2021/06/07 00:09:26;;;;;;;28.90;16.02;;;17.80;99.90;;;;;;5031319;28;20034;-67
2021/06/07 00:12:00;;;;;;;29.92;16.80;;;17.80;99.90;;;;;;5031408;28;20386;-67
2021/06/07 00:14:32;;;;;;;34.40;17.38;;;17.80;99.90;;;;;;5031485;28;20470;-67
2021/06/07 00:16:59;;;;;;;29.27;16.38;;;17.80;99.90;;;;;;5030844;28;20144;-67
2021/06/07 00:19:29;;;;;;;31.40;16.67;;;17.70;99.90;;;;;;5016134;28;20113;-69
2021/06/07 00:21:55;;;;;;;30.70;15.27;;;17.70;99.90;;;;;;5015834;28;20607;-68
2021/06/07 00:24:22;;;;;;;29.15;15.25;;;17.60;99.90;;;;;;5030945;28;20046;-67
2021/06/07 00:26:48;;;;;;;29.10;15.82;;;17.70;99.90;;;;;;5015823;28;20478;-68
2021/06/07 00:29:14;;;;;;;35.05;17.10;;;17.70;99.90;;;;;;5030799;28;20500;-68
2021/06/07 00:31:41;;;;;;;31.55;17.00;;;17.70;99.90;;;;;;5031199;28;20034;-68
2021/06/07 00:34:08;;;;;;;29.73;15.88;;;17.70;99.90;;;;;;5015877;28;20022;-68
2021/06/07 00:36:36;;;;;;;31.42;17.35;;;17.60;99.90;;;;;;5031014;28;20045;-68
2021/06/07 00:39:10;;;;;;;27.88;15.75;;;17.60;99.90;;;;;;5015992;28;20464;-68
2021/06/07 00:41:36;;;;;;;30.88;17.20;;;17.60;99.90;;;;;;5015578;28;20030;-68
2021/06/07 00:44:09;;;;;;;31.17;16.27;;;17.60;99.90;;;;;;5031074;28;20036;-68
2021/06/07 00:46:35;;;;;;;30.75;16.17;;;17.60;99.90;;;;;;5030918;28;20033;-68
2021/06/07 00:49:01;;;;;;;29.50;16.75;;;17.50;99.90;;;;;;5015542;28;20033;-68
2021/06/07 00:51:27;;;;;;;34.05;17.05;;;17.40;99.90;;;;;;5015505;28;20030;-68
2021/06/07 00:53:53;;;;;;;36.13;17.10;;;17.50;99.90;;;;;;5030652;28;20049;-67
2021/06/07 00:56:19;;;;;;;31.13;17.17;;;17.50;99.90;;;;;;5015419;28;20029;-68
2021/06/07 00:58:47;;;;;;;32.72;17.45;;;17.50;99.90;;;;;;5015489;28;20030;-68
2021/06/07 01:01:24;;;;;;;29.02;16.73;;;17.60;99.90;;;;;;5015067;28;20033;-68
2021/06/07 01:03:54;;;;;;;33.50;17.13;;;17.60;99.90;;;;;;5015188;28;20393;-68
2021/06/07 01:06:20;;;;;;;35.90;17.73;;;17.60;99.90;;;;;;5030153;28;20069;-68
2021/06/07 01:08:46;;;;;;;32.28;16.80;;;17.60;99.90;;;;;;5030236;28;20034;-68
2021/06/07 01:11:13;;;;;;;34.28;17.30;;;17.50;99.90;;;;;;5030020;28;20448;-68
2021/06/07 01:13:40;;;;;;;31.38;17.25;;;17.50;99.90;;;;;;5030199;28;20026;-68
2021/06/07 01:16:06;;;;;;;37.47;18.67;;;17.60;99.90;;;;;;5014129;28;20030;-68
2021/06/07 01:18:33;;;;;;;32.15;18.20;;;17.50;99.90;;;;;;5014749;28;20064;-68
2021/06/07 01:21:04;;;;;;;35.35;18.92;;;17.50;99.90;;;;;;5013564;28;20120;-67
2021/06/07 01:23:30;;;;;;;35.83;19.15;;;17.50;99.90;;;;;;5015095;28;20048;-68
2021/06/07 01:26:00;;;;;;;36.72;18.35;;;17.50;99.90;;;;;;5013555;28;20034;-68
2021/06/07 01:28:27;;;;;;;41.33;19.25;;;17.40;99.90;;;;;;5014405;28;20038;-68
2021/06/07 01:30:54;;;;;;;33.65;19.50;;;17.40;99.90;;;;;;5014711;28;20041;-68
2021/06/07 01:33:24;;;;;;;33.53;18.92;;;17.40;99.90;;;;;;5029725;28;20053;-68
2021/06/07 01:35:54;;;;;;;34.92;18.75;;;17.40;99.90;;;;;;5029825;28;20046;-68
2021/06/07 01:38:21;;;;;;;37.05;20.27;;;17.40;99.90;;;;;;5014446;28;20501;-68
2021/06/07 01:40:51;;;;;;;34.15;18.25;;;17.30;99.90;;;;;;5029991;28;20367;-68
2021/06/07 01:43:17;;;;;;;34.20;18.60;;;17.30;99.90;;;;;;5013190;28;20398;-68
2021/06/07 01:45:46;;;;;;;36.95;19.70;;;17.30;99.90;;;;;;5014406;28;20509;-68
2021/06/07 01:48:14;;;;;;;34.25;18.52;;;17.30;99.90;;;;;;5014094;28;20045;-67
2021/06/07 01:50:40;;;;;;;39.28;18.77;;;17.30;99.90;;;;;;5014194;28;20076;-68
2021/06/07 01:53:11;;;;;;;35.03;18.83;;;17.30;99.90;;;;;;5029488;28;20386;-67
2021/06/07 01:55:43;;;;;;;35.03;18.58;;;17.30;99.90;;;;;;5029606;28;20022;-68
2021/06/07 01:58:10;;;;;;;32.85;17.30;;;17.30;99.90;;;;;;5014079;28;20478;-68
2021/06/07 02:00:45;;;;;;;34.53;18.85;;;17.40;99.90;;;;;;5014367;28;20034;-67
2021/06/07 02:03:13;;;;;;;33.05;17.85;;;17.30;99.90;;;;;;5013842;28;20041;-68
2021/06/07 02:05:41;;;;;;;33.13;17.67;;;17.40;99.90;;;;;;5014002;28;20105;-67
2021/06/07 02:08:12;;;;;;;30.05;16.60;;;17.40;99.90;;;;;;5029168;28;20084;-68
2021/06/07 02:10:44;;;;;;;38.38;17.92;;;17.40;99.90;;;;;;5013947;28;20084;-68
2021/06/07 02:13:12;;;;;;;32.28;16.58;;;17.50;99.90;;;;;;5013894;28;20038;-68
2021/06/07 02:15:38;;;;;;;31.83;17.25;;;17.50;99.90;;;;;;5014083;28;20109;-68
2021/06/07 02:18:07;;;;;;;26.45;15.63;;;17.40;99.90;;;;;;5013671;28;20053;-67
2021/06/07 02:20:34;;;;;;;28.63;16.52;;;17.40;99.90;;;;;;5012512;28;20487;-68
2021/06/07 02:23:00;;;;;;;25.35;15.30;;;17.50;99.90;;;;;;5029021;28;20032;-68
2021/06/07 02:25:26;;;;;;;27.23;15.88;;;17.50;99.90;;;;;;5029108;28;20114;-68
2021/06/07 02:27:53;;;;;;;25.05;14.20;;;17.50;99.90;;;;;;5028829;28;20034;-68
2021/06/07 02:30:30;;;;;;;31.73;16.88;;;17.40;99.90;;;;;;5013163;28;20046;-68
2021/06/07 02:32:59;;;;;;;25.75;14.50;;;17.40;99.90;;;;;;5028803;28;20394;-68
2021/06/07 02:35:25;;;;;;;27.42;14.90;;;17.30;99.90;;;;;;5013553;28;20033;-68
2021/06/07 02:37:54;;;;;;;24.13;15.10;;;17.30;99.90;;;;;;5013356;28;20382;-68
2021/06/07 02:40:25;;;;;;;23.75;14.70;;;17.30;99.90;;;;;;5028609;28;20132;-68
2021/06/07 02:42:51;;;;;;;25.20;14.77;;;17.20;99.90;;;;;;5013622;28;20032;-68
2021/06/07 02:45:19;;;;;;;24.23;14.30;;;17.20;99.90;;;;;;5013509;28;20034;-68
2021/06/07 02:47:49;;;;;;;34.97;18.17;;;17.10;99.90;;;;;;5013318;28;20421;-68
2021/06/07 02:50:20;;;;;;;28.45;16.73;;;17.00;99.90;;;;;;5013009;28;20033;-68
2021/06/07 02:52:49;;;;;;;28.42;16.55;;;16.90;99.90;;;;;;5012890;28;20156;-68
2021/06/07 02:55:31;;;;;;;27.95;16.33;;;16.80;99.90;;;;;;5013315;28;20038;-68
2021/06/07 02:57:58;;;;;;;27.13;16.05;;;16.80;99.90;;;;;;5013491;28;20045;-68
2021/06/07 03:00:30;;;;;;;30.80;17.10;;;16.70;99.90;;;;;;5013027;28;20509;-68
2021/06/07 03:02:59;;;;;;;35.63;18.00;;;16.60;99.90;;;;;;5013051;28;20494;-68
2021/06/07 03:05:25;;;;;;;29.23;18.05;;;16.60;99.90;;;;;;5011701;28;20045;-68
2021/06/07 03:07:52;;;;;;;27.42;16.65;;;16.50;99.90;;;;;;5028176;28;20088;-68
2021/06/07 03:10:18;;;;;;;28.92;16.98;;;16.50;99.90;;;;;;5028013;28;20033;-68
2021/06/07 03:12:44;;;;;;;30.70;18.00;;;16.50;99.90;;;;;;5013083;28;20359;-68
2021/06/07 03:15:13;;;;;;;29.02;17.65;;;16.50;99.90;;;;;;5012728;28;20092;-68
2021/06/07 03:17:39;;;;;;;29.20;17.77;;;16.50;99.90;;;;;;5013058;28;20030;-68
2021/06/07 03:20:12;;;;;;;31.15;17.00;;;16.50;99.90;;;;;;5012674;28;20029;-68
2021/06/07 03:22:39;;;;;;;26.80;16.75;;;16.40;99.90;;;;;;5027778;28;20112;-67
2021/06/07 03:25:07;;;;;;;30.80;17.25;;;16.40;99.90;;;;;;5028135;28;20030;-67
2021/06/07 03:27:33;;;;;;;30.45;17.42;;;16.40;99.90;;;;;;5028244;28;20029;-67
2021/06/07 03:29:59;;;;;;;26.23;16.10;;;16.40;99.90;;;;;;5012365;28;20049;-67
2021/06/07 03:32:25;;;;;;;29.60;17.17;;;16.40;99.90;;;;;;5012264;28;20034;-67
2021/06/07 03:34:51;;;;;;;29.33;17.35;;;16.40;99.90;;;;;;5012699;28;20030;-67
2021/06/07 03:37:17;;;;;;;25.00;14.55;;;16.40;99.90;;;;;;5012496;28;20033;-67
2021/06/07 03:39:43;;;;;;;26.25;15.25;;;16.40;99.90;;;;;;5011738;28;20034;-67
2021/06/07 03:42:09;;;;;;;25.55;15.65;;;16.30;99.90;;;;;;5027811;28;20386;-67
2021/06/07 03:44:35;;;;;;;24.73;14.85;;;16.30;99.90;;;;;;5000251;28;20073;-67
2021/06/07 03:47:01;;;;;;;26.40;14.82;;;16.30;99.90;;;;;;5012358;28;20076;-57
2021/06/07 03:49:27;;;;;;;25.05;15.32;;;16.30;99.90;;;;;;5012151;28;20026;-74
2021/06/07 03:51:53;;;;;;;19.27;13.00;;;16.40;99.90;;;;;;5036409;28;20030;-71
2021/06/07 03:54:19;;;;;;;21.50;13.02;;;16.50;99.90;;;;;;5031775;28;20030;-59
2021/06/07 03:56:45;;;;;;;18.98;12.48;;;16.70;99.90;;;;;;5028798;28;20459;-59
2021/06/07 03:59:12;;;;;;;19.17;11.77;;;16.70;99.90;;;;;;5034437;28;20018;-58
2021/06/07 04:01:38;;;;;;;18.80;10.65;;;16.80;99.90;;;;;;5031827;28;20116;-58
2021/06/07 04:04:05;;;;;;;14.00;9.40;;;16.90;99.90;;;;;;5032033;28;20032;-57
2021/06/07 04:06:31;;;;;;;15.77;9.68;;;17.00;99.90;;;;;;5032042;28;20032;-58
2021/06/07 04:08:58;;;;;;;11.38;7.82;;;17.00;99.90;;;;;;5032123;28;20065;-57
2021/06/07 04:11:25;;;;;;;11.77;8.40;;;17.00;99.90;;;;;;5032052;28;20030;-58
2021/06/07 04:13:52;;;;;;;11.10;7.75;;;17.00;99.90;;;;;;5031842;28;20386;-55
2021/06/07 04:16:18;;;;;;;12.40;7.22;;;17.00;99.90;;;;;;5031831;28;20029;-58
2021/06/07 04:18:44;;;;;;;12.93;6.47;;;17.10;99.90;;;;;;5031736;28;20615;-58
2021/06/07 04:21:11;;;;;;;10.52;7.75;;;17.10;99.90;;;;;;5030649;28;20025;-59
2021/06/07 04:23:37;;;;;;;12.68;6.65;;;17.20;99.90;;;;;;5046327;28;20029;-58
2021/06/07 04:26:03;;;;;;;14.13;7.30;;;17.20;99.90;;;;;;5051676;28;20031;-58
2021/06/07 04:28:29;;;;;;;12.20;7.20;;;17.10;99.90;;;;;;5051606;28;20086;-58
2021/06/07 04:30:55;;;;;;;16.77;7.35;;;17.20;99.90;;;;;;5051895;28;20037;-60
2021/06/07 04:33:22;;;;;;;9.50;6.80;;;17.20;99.90;;;;;;5050601;28;20033;-60
2021/06/07 04:35:48;;;;;;;10.63;6.72;;;17.10;99.90;;;;;;5051819;28;20530;-59
2021/06/07 04:38:13;;;;;;;13.05;7.88;;;17.20;99.90;;;;;;5051541;28;20041;-58
2021/06/07 04:40:40;;;;;;;10.27;6.68;;;17.20;99.90;;;;;;5051547;28;20056;-59
2021/06/07 04:43:11;;;;;;;10.10;7.00;;;17.20;99.90;;;;;;5051841;28;20025;-58
2021/06/07 04:45:40;;;;;;;10.10;6.40;;;17.20;99.90;;;;;;5050129;28;20051;-58
2021/06/07 04:48:07;;;;;;;9.45;6.03;;;17.20;99.90;;;;;;5051536;28;20431;-59
2021/06/07 04:50:34;;;;;;;9.23;6.65;;;17.20;99.90;;;;;;5051938;28;20072;-62
2021/06/07 04:53:01;;;;;;;11.82;5.97;;;17.20;99.90;;;;;;5044628;28;20040;-60
2021/06/07 04:55:54;;;;;;;7.45;5.22;;;17.30;99.90;;;;;;5033688;28;20156;-60
2021/06/07 04:58:29;;;;;;;10.40;5.97;;;17.30;99.90;;;;;;5035014;28;20049;-59
2021/06/07 05:01:02;;;;;;;7.47;5.45;;;17.30;99.90;;;;;;5033692;28;20175;-59
2021/06/07 05:03:29;;;;;;;7.78;4.95;;;17.30;99.90;;;;;;5035056;28;20030;-59
2021/06/07 05:05:56;;;;;;;6.68;4.60;;;17.30;99.90;;;;;;5035058;28;20048;-60
2021/06/07 05:08:24;;;;;;;7.07;4.85;;;17.30;99.90;;;;;;5034608;28;20360;-60
2021/06/07 05:10:50;;;;;;;7.20;4.63;;;17.30;99.90;;;;;;5032463;28;20058;-60
2021/06/07 05:13:16;;;;;;;8.07;4.65;;;17.30;99.90;;;;;;5035056;28;20109;-60
2021/06/07 05:15:43;;;;;;;7.03;4.43;;;17.20;99.90;;;;;;5034598;28;20043;-60
2021/06/07 05:18:10;;;;;;;12.25;5.07;;;17.20;99.90;;;;;;5034984;28;20095;-60
2021/06/07 05:20:36;;;;;;;7.95;4.43;;;17.20;99.90;;;;;;5033106;28;20030;-60
2021/06/07 05:23:03;;;;;;;6.93;4.15;;;17.20;99.90;;;;;;5033947;28;20136;-59
2021/06/07 05:25:31;;;;;;;5.10;3.50;;;17.20;99.90;;;;;;5054519;28;20086;-60
2021/06/07 05:27:59;;;;;;;5.30;3.25;;;17.20;99.90;;;;;;5054473;28;20525;-60
2021/06/07 05:30:28;;;;;;;5.75;3.63;;;17.30;99.90;;;;;;5052763;28;20382;-60
2021/06/07 05:32:54;;;;;;;6.25;3.72;;;17.30;99.90;;;;;;5054228;28;20037;-59
2021/06/07 05:35:26;;;;;;;8.05;3.85;;;17.30;99.90;;;;;;5053418;28;20043;-59
2021/06/07 05:37:52;;;;;;;5.80;3.75;;;17.40;99.90;;;;;;5053886;28;20087;-59
2021/06/07 05:40:20;;;;;;;7.68;4.10;;;17.20;99.90;;;;;;5054006;28;20439;-67
2021/06/07 05:42:48;;;;;;;7.13;4.68;;;17.30;99.90;;;;;;5040559;28;20068;-67
2021/06/07 05:45:15;;;;;;;7.15;5.07;;;17.20;99.90;;;;;;5032933;28;20446;-66
2021/06/07 05:47:41;;;;;;;8.60;5.32;;;17.00;99.90;;;;;;5034205;28;20040;-66
2021/06/07 05:50:12;;;;;;;7.65;5.47;;;16.90;99.90;;;;;;5032931;28;20025;-66
2021/06/07 05:52:47;;;;;;;11.38;7.47;;;16.80;99.90;;;;;;5041540;28;20119;-66
2021/06/07 05:55:22;;;;;;;9.68;5.70;;;16.70;99.90;;;;;;5053950;28;20036;-66
2021/06/07 05:57:50;;;;;;;9.30;6.25;;;16.60;99.90;;;;;;5051959;28;20569;-66
2021/06/07 06:00:20;;;;;;;10.60;6.30;;;16.60;99.90;;;;;;5050837;28;20079;-66
2021/06/07 06:02:47;;;;;;;8.67;6.20;;;16.50;99.90;;;;;;5032020;28;20034;-66
2021/06/07 06:05:14;;;;;;;9.93;6.90;;;16.60;99.90;;;;;;5033545;28;20528;-66
2021/06/07 06:07:41;;;;;;;14.60;7.60;;;16.60;99.90;;;;;;5031903;28;20328;-67
2021/06/07 06:10:07;;;;;;;10.23;6.63;;;16.60;99.90;;;;;;5033640;28;20166;-67
2021/06/07 06:12:33;;;;;;;10.65;7.28;;;16.60;99.90;;;;;;5033392;28;20030;-67
2021/06/07 06:14:59;;;;;;;11.23;7.50;;;16.60;99.90;;;;;;5033351;28;20525;-67
2021/06/07 06:17:25;;;;;;;12.68;7.43;;;16.70;99.90;;;;;;5033511;28;20029;-68
2021/06/07 06:19:51;;;;;;;10.70;7.65;;;16.70;99.90;;;;;;5033509;28;20037;-67
2021/06/07 06:22:17;;;;;;;13.02;7.75;;;16.70;99.90;;;;;;5038052;28;20029;-67
2021/06/07 06:24:45;;;;;;;11.85;7.82;;;16.70;99.90;;;;;;5051942;28;20107;-68
2021/06/07 06:27:12;;;;;;;26.45;13.10;;;16.80;99.90;;;;;;5068289;28;20040;-68
2021/06/07 06:29:38;;;;;;;13.85;8.95;;;16.80;99.90;;;;;;5051635;28;20053;-69
2021/06/07 06:32:06;;;;;;;27.08;15.35;;;16.60;99.90;;;;;;5051904;28;20032;-69
2021/06/07 06:34:32;;;;;;;16.75;9.13;;;16.70;99.90;;;;;;5052115;28;20047;-69
2021/06/07 06:36:58;;;;;;;13.02;9.18;;;16.70;99.90;;;;;;5052120;28;20029;-68
2021/06/07 06:39:24;;;;;;;12.90;7.72;;;16.70;99.90;;;;;;5052883;28;20033;-69
2021/06/07 06:41:50;;;;;;;13.30;8.60;;;16.60;99.90;;;;;;5053175;28;20055;-68
2021/06/07 06:44:16;;;;;;;12.88;8.20;;;16.70;99.90;;;;;;5053018;28;20033;-69
2021/06/07 06:46:42;;;;;;;11.75;7.68;;;16.80;99.90;;;;;;5051748;28;20037;-69
2021/06/07 06:49:08;;;;;;;11.70;7.50;;;16.80;99.90;;;;;;5053047;28;20037;-68
2021/06/07 06:51:34;;;;;;;10.95;7.90;;;16.70;99.90;;;;;;5052592;28;20123;-69
2021/06/07 06:53:59;;;;;;;12.18;7.13;;;16.80;99.90;;;;;;5032519;28;20124;-68
2021/06/07 06:56:25;;;;;;;11.15;7.70;;;16.80;99.90;;;;;;5032959;28;20434;-69
2021/06/07 06:58:51;;;;;;;22.50;8.57;;;16.80;99.90;;;;;;5032534;28;20048;-68
2021/06/07 07:01:17;;;;;;;12.85;7.95;;;16.70;99.90;;;;;;5032587;28;20033;-68
2021/06/07 07:03:45;;;;;;;12.45;8.30;;;16.80;99.90;;;;;;5032667;28;20474;-68
2021/06/07 07:06:11;;;;;;;12.13;8.00;;;16.90;99.90;;;;;;5032780;28;20426;-66
2021/06/07 07:08:37;;;;;;;12.65;7.80;;;16.80;99.90;;;;;;5032277;28;20036;-66
2021/06/07 07:11:03;;;;;;;13.00;8.05;;;16.80;99.90;;;;;;5032802;28;20033;-67
2021/06/07 07:13:29;;;;;;;13.77;7.95;;;16.80;99.90;;;;;;5031575;28;20025;-67
2021/06/07 07:15:55;;;;;;;11.50;8.52;;;16.80;99.90;;;;;;5031094;28;20078;-67
2021/06/07 07:18:21;;;;;;;11.73;8.23;;;16.80;99.90;;;;;;5032317;28;20029;-66
2021/06/07 07:20:47;;;;;;;12.80;7.88;;;16.90;99.90;;;;;;5032365;28;20040;-67
2021/06/07 07:23:13;;;;;;;12.68;8.77;;;16.80;99.90;;;;;;5044860;28;20041;-67
2021/06/07 07:25:40;;;;;;;14.38;8.60;;;16.80;99.90;;;;;;5052436;28;20025;-67
2021/06/07 07:28:08;;;;;;;12.32;8.00;;;16.70;99.90;;;;;;5051279;28;20040;-67
2021/06/07 07:30:36;;;;;;;14.73;8.90;;;16.80;99.90;;;;;;5051859;28;20397;-67
2021/06/07 07:33:03;;;;;;;18.02;8.88;;;16.80;99.90;;;;;;5052079;28;20171;-67
2021/06/07 07:35:29;;;;;;;12.98;9.07;;;16.80;99.90;;;;;;5051982;28;20107;-67
2021/06/07 07:37:57;;;;;;;13.85;9.48;;;16.80;99.90;;;;;;5052006;28;20469;-67
2021/06/07 07:40:25;;;;;;;16.45;9.55;;;16.80;99.90;;;;;;5052285;28;20147;-67
2021/06/07 07:42:55;;;;;;;18.48;11.05;;;16.90;99.90;;;;;;5050902;28;20029;-67
2021/06/07 07:45:24;;;;;;;17.40;10.75;;;16.90;99.90;;;;;;5052394;28;20469;-67
2021/06/07 07:47:50;;;;;;;18.48;10.85;;;16.90;99.90;;;;;;5050610;28;20124;-67
2021/06/07 07:50:19;;;;;;;16.88;10.48;;;17.10;99.90;;;;;;5051131;28;20112;-67
2021/06/07 07:52:47;;;;;;;17.17;10.35;;;17.10;99.90;;;;;;5041917;28;20458;-67
2021/06/07 07:55:20;;;;;;;18.27;10.52;;;17.10;99.90;;;;;;5030767;28;20037;-67
2021/06/07 07:57:50;;;;;;;17.45;11.07;;;17.10;99.90;;;;;;5030882;28;20037;-67
2021/06/07 08:00:25;;;;;;;18.85;12.18;;;17.10;99.90;;;;;;5031031;28;20436;-67
2021/06/07 08:02:51;;;;;;;19.35;11.45;;;17.20;99.90;;;;;;5030707;28;20045;-68
2021/06/07 08:05:17;;;;;;;16.42;10.13;;;17.40;99.90;;;;;;5038612;28;20037;-67
2021/06/07 08:07:43;;;;;;;17.90;11.20;;;17.40;99.90;;;;;;5051523;28;20112;-67
2021/06/07 08:10:10;;;;;;;16.50;10.52;;;17.30;99.90;;;;;;5052051;28;20116;-67
2021/06/07 08:12:38;;;;;;;14.20;10.02;;;17.50;99.90;;;;;;5051738;28;20041;-67
2021/06/07 08:15:07;;;;;;;14.25;9.95;;;17.40;99.90;;;;;;5050520;28;20036;-66
2021/06/07 08:17:33;;;;;;;16.42;10.07;;;17.50;99.90;;;;;;5051563;28;20033;-67
2021/06/07 08:19:59;;;;;;;14.82;9.75;;;17.50;99.90;;;;;;5051884;28;20040;-67
2021/06/07 08:22:25;;;;;;;15.60;9.73;;;17.50;99.90;;;;;;5045828;28;20029;-67
2021/06/07 08:24:51;;;;;;;14.65;8.55;;;17.50;99.90;;;;;;5033026;28;20465;-67
2021/06/07 08:27:17;;;;;;;15.07;9.27;;;17.40;99.90;;;;;;5035797;28;20037;-67
2021/06/07 08:29:43;;;;;;;15.77;9.50;;;17.50;99.90;;;;;;5035038;28;20524;-67
2021/06/07 08:32:09;;;;;;;14.40;9.43;;;17.50;99.90;;;;;;5035453;28;20022;-68
2021/06/07 08:34:35;;;;;;;16.98;10.90;;;17.40;99.90;;;;;;5035236;28;20083;-67
2021/06/07 08:37:01;;;;;;;19.58;11.32;;;17.40;99.90;;;;;;5017705;28;20124;-67
2021/06/07 08:39:27;;;;;;;15.57;10.15;;;17.40;99.90;;;;;;5035275;28;20124;-67
2021/06/07 08:41:53;;;;;;;14.55;9.70;;;17.50;99.90;;;;;;5034293;28;20087;-67
2021/06/07 08:44:18;;;;;;;16.23;9.98;;;17.50;99.90;;;;;;5035199;28;20389;-66
2021/06/07 08:46:46;;;;;;;15.40;10.40;;;17.60;99.90;;;;;;5035407;28;20073;-67
2021/06/07 08:49:13;;;;;;;16.52;10.70;;;17.60;99.90;;;;;;5033875;28;20083;-66
2021/06/07 08:51:38;;;;;;;18.00;10.63;;;17.80;99.90;;;;;;5034885;28;20124;-67
2021/06/07 08:54:06;;;;;;;16.40;9.75;;;17.80;99.90;;;;;;5053639;28;20218;-68
2021/06/07 08:56:32;;;;;;;15.93;10.52;;;17.90;99.90;;;;;;5053707;28;20025;-67
2021/06/07 08:58:57;;;;;;;15.85;10.63;;;18.00;99.90;;;;;;5054811;28;20044;-66
2021/06/07 09:01:23;;;;;;;17.75;10.50;;;18.10;99.90;;;;;;5055028;28;20048;-67
2021/06/07 09:03:49;;;;;;;16.73;10.05;;;18.10;99.90;;;;;;5054533;28;20485;-67
2021/06/07 09:06:24;;;;;;;16.73;10.52;;;18.10;99.90;;;;;;5053997;28;20051;-68
2021/06/07 09:09:01;;;;;;;18.77;10.52;;;17.90;99.90;;;;;;5054661;28;20405;-67
2021/06/07 09:11:26;;;;;;;14.15;10.18;;;17.90;99.90;;;;;;5053654;28;20037;-67
2021/06/07 09:13:52;;;;;;;14.93;9.85;;;17.90;99.90;;;;;;5053497;28;20048;-67
2021/06/07 09:16:18;;;;;;;16.27;10.32;;;17.90;99.90;;;;;;5054568;28;20039;-67
2021/06/07 09:18:47;;;;;;;16.20;10.38;;;17.90;99.90;;;;;;5053422;28;20032;-67
2021/06/07 09:21:33;;;;;;;16.40;11.65;;;18.00;99.90;;;;;;5053253;28;20033;-67
2021/06/07 09:24:05;;;;;;;16.85;10.10;;;18.10;99.90;;;;;;5034909;28;20041;-67
2021/06/07 09:26:42;;;;;;;17.17;10.35;;;18.20;99.90;;;;;;5034793;28;20025;-68
2021/06/07 09:29:35;;;;;;;15.70;10.93;;;18.20;99.90;;;;;;5033176;28;20065;-68
2021/06/07 09:32:02;;;;;;;18.98;10.93;;;18.20;99.90;;;;;;5034300;28;20120;-68
2021/06/07 09:34:35;;;;;;;20.40;10.93;;;18.40;99.90;;;;;;5034506;28;20029;-67
2021/06/07 09:37:10;;;;;;;18.02;11.40;;;18.60;99.90;;;;;;5033345;28;20025;-69
2021/06/07 09:39:38;;;;;;;16.58;10.45;;;18.50;99.90;;;;;;5033396;28;20079;-68
2021/06/07 09:42:14;;;;;;;15.95;10.30;;;18.60;99.90;;;;;;5033465;28;20072;-66
2021/06/07 09:44:52;;;;;;;16.05;10.98;;;18.50;99.90;;;;;;5033803;28;20072;-66
2021/06/07 09:47:35;;;;;;;14.40;9.40;;;18.70;99.90;;;;;;5032925;28;20057;-67
2021/06/07 09:50:09;;;;;;;14.93;9.65;;;18.70;99.90;;;;;;5033808;28;20512;-66
2021/06/07 09:52:45;;;;;;;17.63;9.63;;;18.70;99.90;;;;;;5040103;28;20034;-67
2021/06/07 09:55:17;;;;;;;16.35;10.20;;;18.80;99.90;;;;;;5052607;28;20039;-67
2021/06/07 09:57:55;;;;;;;14.88;10.52;;;18.80;99.90;;;;;;5053708;28;20397;-66
2021/06/07 10:00:49;;;;;;;16.73;9.88;;;18.80;99.90;;;;;;5052893;28;20037;-67
2021/06/07 10:03:28;;;;;;;15.95;10.27;;;18.90;99.90;;;;;;5045546;28;20053;-66
2021/06/07 10:06:03;;;;;;;15.48;10.20;;;19.00;99.90;;;;;;5033692;28;20034;-67
2021/06/07 10:08:43;;;;;;;17.05;10.50;;;19.10;99.90;;;;;;5032064;28;20552;-66
2021/06/07 10:11:26;;;;;;;14.93;10.07;;;19.00;99.90;;;;;;5032757;28;20038;-66
2021/06/07 10:14:19;;;;;;;17.15;10.40;;;19.00;99.90;;;;;;5033503;28;20390;-67
2021/06/07 10:17:02;;;;;;;16.85;9.98;;;19.10;99.90;;;;;;5033371;28;20116;-67
2021/06/07 10:22:20;;;;;;;19.05;11.32;;;19.00;99.90;;;;;;5017301;28;20524;-66
2021/06/07 10:24:46;;;;;;;15.30;10.07;;;19.10;99.90;;;;;;5052187;28;20060;-67
2021/06/07 10:27:12;;;;;;;16.05;10.55;;;19.30;99.90;;;;;;5052322;28;20103;-67
2021/06/07 10:29:44;;;;;;;17.75;11.20;;;19.40;99.90;;;;;;5053046;28;20094;-67
2021/06/07 10:32:24;;;;;;;15.98;9.55;;;19.40;99.90;;;;;;5048525;28;20021;-67
2021/06/07 10:34:56;;;;;;;14.77;10.32;;;19.50;99.90;;;;;;5033282;28;20045;-67
2021/06/07 10:37:24;;;;;;;16.75;10.98;;;19.50;99.90;;;;;;5033156;28;20036;-67
2021/06/07 10:39:51;;;;;;;20.02;10.45;;;19.60;99.90;;;;;;5031658;28;20041;-67
2021/06/07 10:42:25;;;;;;;16.77;10.55;;;19.50;99.90;;;;;;5031763;28;20033;-67
2021/06/07 10:44:58;;;;;;;16.67;10.70;;;19.40;99.90;;;;;;5031971;28;20045;-67
2021/06/07 10:47:39;;;;;;;18.00;11.40;;;19.40;99.90;;;;;;5031540;28;20500;-67
2021/06/07 10:50:12;;;;;;;18.77;12.18;;;19.40;99.90;;;;;;5032484;28;20034;-67
2021/06/07 10:52:57;;;;;;;19.42;11.43;;;19.30;99.90;;;;;;5039291;28;20413;-67
2021/06/07 10:55:29;;;;;;;17.85;11.38;;;19.30;99.90;;;;;;5051838;28;20040;-67
2021/06/07 10:57:56;;;;;;;20.80;12.43;;;19.30;99.90;;;;;;5052655;28;20040;-67
2021/06/07 11:00:45;;;;;;;21.27;13.43;;;19.30;99.90;;;;;;5052597;28;20037;-67
2021/06/07 11:03:27;;;;;;;22.33;12.18;;;19.20;99.90;;;;;;5052905;28;20033;-67
2021/06/07 11:05:58;;;;;;;21.30;11.63;;;19.20;99.90;;;;;;5051284;28;20036;-67
2021/06/07 11:08:32;;;;;;;19.38;12.13;;;19.30;99.90;;;;;;5051487;28;20084;-67
2021/06/07 11:11:07;;;;;;;16.25;11.18;;;19.40;99.90;;;;;;5051064;28;20040;-67
2021/06/07 11:13:45;;;;;;;18.23;10.95;;;19.40;99.90;;;;;;5051362;28;20029;-67
2021/06/07 11:16:38;;;;;;;17.15;10.75;;;19.60;99.90;;;;;;5051135;28;20043;-67
2021/06/07 11:19:12;;;;;;;19.80;11.55;;;19.70;99.90;;;;;;5035571;28;20079;-67
2021/06/07 11:21:56;;;;;;;18.02;11.20;;;19.80;99.90;;;;;;5050876;28;20086;-67
2021/06/07 11:24:36;;;;;;;18.15;10.63;;;19.90;99.90;;;;;;5012957;28;20041;-67
2021/06/07 11:27:05;;;;;;;16.65;10.48;;;20.00;99.90;;;;;;5012584;28;20132;-67
2021/06/07 11:29:32;;;;;;;18.33;10.93;;;20.00;99.90;;;;;;5012488;28;20093;-67
2021/06/07 11:32:11;;;;;;;20.88;12.00;;;20.00;99.90;;;;;;5027405;28;20030;-67
2021/06/07 11:34:57;;;;;;;18.48;11.18;;;20.00;99.90;;;;;;5011233;28;20042;-67
2021/06/07 11:37:36;;;;;;;17.40;11.18;;;20.00;99.90;;;;;;5027550;28;20030;-67
2021/06/07 11:40:08;;;;;;;16.70;11.18;;;20.00;99.90;;;;;;5012440;28;20037;-67
2021/06/07 11:42:56;;;;;;;19.80;11.98;;;20.00;99.90;;;;;;5012494;28;20500;-67
2021/06/07 11:45:43;;;;;;;18.05;10.73;;;19.90;99.90;;;;;;5027289;28;20056;-66
2021/06/07 11:48:09;;;;;;;20.30;11.73;;;20.00;99.90;;;;;;5027335;28;20022;-66
2021/06/07 11:50:41;;;;;;;18.70;11.90;;;20.10;99.90;;;;;;5027278;28;20068;-66
2021/06/07 11:53:16;;;;;;;20.38;11.48;;;20.10;99.90;;;;;;5011430;28;20033;-66
2021/06/07 11:55:44;;;;;;;18.42;11.40;;;20.30;99.90;;;;;;5030728;28;20477;-66
2021/06/07 11:58:21;;;;;;;18.67;12.07;;;20.30;99.90;;;;;;5032469;28;20079;-66
2021/06/07 12:01:03;;;;;;;19.08;11.55;;;20.30;99.90;;;;;;5049741;28;20091;-67
2021/06/07 12:03:30;;;;;;;15.63;10.85;;;20.10;99.90;;;;;;5036086;28;20417;-67
2021/06/07 12:05:57;;;;;;;20.38;11.43;;;20.00;99.90;;;;;;5035812;28;20112;-66
2021/06/07 12:08:26;;;;;;;17.13;10.93;;;20.30;99.90;;;;;;5034710;28;20496;-67
2021/06/07 12:10:59;;;;;;;18.30;11.48;;;20.20;99.90;;;;;;5017992;28;20116;-67
2021/06/07 12:13:41;;;;;;;16.98;11.23;;;20.30;99.90;;;;;;5035074;28;20103;-66
2021/06/07 12:16:15;;;;;;;17.33;11.00;;;20.30;99.90;;;;;;5035711;28;20071;-66
2021/06/07 12:18:52;;;;;;;18.65;10.88;;;20.30;99.90;;;;;;5036128;28;20041;-67
2021/06/07 12:21:28;;;;;;;24.33;12.02;;;20.20;99.90;;;;;;5034742;28;20049;-66
2021/06/07 12:29:33;;;;;;;18.02;11.05;;;20.60;99.90;;;;;;5055299;28;20076;-66
2021/06/07 12:32:21;;;;;;;16.90;10.90;;;20.60;99.90;;;;;;5054996;28;20036;-66
2021/06/07 12:35:11;;;;;;;18.33;11.75;;;20.60;99.90;;;;;;5055583;28;20480;-66
2021/06/07 12:38:08;;;;;;;17.38;11.00;;;20.60;99.90;;;;;;5055288;28;20025;-66
2021/06/07 12:40:45;;;;;;;17.90;10.52;;;20.60;99.90;;;;;;5042103;28;20167;-67
2021/06/07 12:43:16;;;;;;;18.90;11.93;;;20.70;99.90;;;;;;5053222;28;20570;-67
2021/06/07 12:45:48;;;;;;;17.27;10.65;;;20.90;99.90;;;;;;5055003;28;20033;-60
2021/06/07 12:48:41;;;;;;;16.15;9.07;;;21.00;99.90;;;;;;5053959;28;20037;-59
2021/06/07 12:51:13;;;;;;;16.40;10.27;;;21.20;99.90;;;;;;5054907;28;20033;-59
2021/06/07 12:53:49;;;;;;;14.70;9.73;;;21.50;99.90;;;;;;5038805;28;20466;-71